Time;durP1;ratioP1;P1;durP2;ratioP2;P2;SDS_P1;SDS_P2;PMS_P1;PMS_P2;Temp;Humidity;BMP_temperature;BMP_pressure;BME280_temperature;BME280_humidity;BME280_pressure;Samples;Min_cycle;Max_cycle;Signal;HPM_P1;HPM_P2
2021/08/03 00:00:57;;;;;;;4.65;1.88;;;;;;;;;;5017130;28;20191;-71
2021/08/03 00:03:35;;;;;;;2.85;1.77;;;;;;;;;;5028042;28;20212;-72
2021/08/03 00:06:07;;;;;;;4.97;2.25;;;;;;;;;;5013925;28;20185;-71
2021/08/03 00:08:34;;;;;;;4.65;2.35;;;;;;;;;;5026917;28;20592;-71
2021/08/03 00:11:05;;;;;;;4.45;2.45;;;;;;;;;;5024646;28;20236;-71
2021/08/03 00:13:31;;;;;;;9.27;3.38;;;;;;;;;;5023355;28;20220;-71
2021/08/03 00:16:01;;;;;;;6.80;3.90;;;;;;;;;;5020102;28;20210;-71
2021/08/03 00:18:28;;;;;;;5.80;3.78;;;;;;;;;;5018609;28;20189;-71
2021/08/03 00:20:53;;;;;;;6.40;3.75;;;;;;;;;;5028509;28;20280;-71
2021/08/03 00:23:21;;;;;;;6.57;3.60;;;;;;;;;;5016709;28;20757;-71
2021/08/03 00:25:48;;;;;;;6.57;3.10;;;;;;;;;;5015322;28;20190;-71
2021/08/03 00:28:14;;;;;;;6.32;3.22;;;;;;;;;;5012818;28;20194;-71
2021/08/03 00:30:39;;;;;;;6.55;3.45;;;;;;;;;;5033653;28;20552;-71
2021/08/03 00:33:05;;;;;;;9.15;4.43;;;;;;;;;;5010009;28;20195;-71
2021/08/03 00:35:30;;;;;;;8.38;4.75;;;;;;;;;;5033679;28;20207;-71
2021/08/03 00:37:55;;;;;;;6.57;3.30;;;;;;;;;;5019282;28;20194;-71
2021/08/03 00:40:24;;;;;;;9.02;3.60;;;;;;;;;;5025184;28;20190;-71
2021/08/03 00:42:49;;;;;;;5.25;3.60;;;;;;;;;;5035588;28;20630;-71
2021/08/03 00:45:15;;;;;;;11.65;5.05;;;;;;;;;;5018819;28;20189;-71
2021/08/03 00:47:40;;;;;;;12.38;6.78;;;;;;;;;;5020285;28;20277;-72
2021/08/03 00:50:06;;;;;;;13.90;7.20;;;;;;;;;;5015844;28;20186;-71
2021/08/03 00:52:31;;;;;;;10.30;6.35;;;;;;;;;;5022812;28;20182;-71
2021/08/03 00:54:57;;;;;;;13.15;6.10;;;;;;;;;;5018094;28;20222;-71
2021/08/03 00:57:22;;;;;;;8.98;4.95;;;;;;;;;;5031156;28;20178;-71
2021/08/03 00:59:48;;;;;;;9.88;4.80;;;;;;;;;;5016199;28;20214;-72
2021/08/03 01:02:13;;;;;;;7.38;4.72;;;;;;;;;;5031195;28;20232;-71
2021/08/03 01:04:39;;;;;;;8.68;5.45;;;;;;;;;;5017807;28;20680;-71
2021/08/03 01:07:32;;;;;;;9.80;4.72;;;;;;;;;;5027109;28;20591;-71
2021/08/03 01:10:09;;;;;;;9.00;4.60;;;;;;;;;;5014811;28;20650;-71
2021/08/03 01:12:53;;;;;;;10.25;4.68;;;;;;;;;;5018255;28;20209;-71
2021/08/03 01:15:21;;;;;;;10.30;4.82;;;;;;;;;;5019580;28;20214;-71
2021/08/03 01:17:56;;;;;;;7.28;4.35;;;;;;;;;;5029038;28;20190;-71
2021/08/03 01:20:35;;;;;;;7.97;4.80;;;;;;;;;;5018453;28;20188;-71
2021/08/03 01:23:37;;;;;;;10.32;4.57;;;;;;;;;;5017349;28;20193;-71
2021/08/03 01:26:14;;;;;;;8.63;4.72;;;;;;;;;;5022189;28;20728;-71
2021/08/03 01:28:47;;;;;;;9.95;5.18;;;;;;;;;;5022664;28;20239;-71
2021/08/03 01:31:19;;;;;;;7.85;4.55;;;;;;;;;;5020159;28;20182;-71
2021/08/03 01:33:49;;;;;;;7.45;4.43;;;;;;;;;;5025108;28;21125;-70
2021/08/03 01:36:16;;;;;;;11.57;5.35;;;;;;;;;;5014213;28;20205;-71
2021/08/03 01:38:42;;;;;;;5.72;4.38;;;;;;;;;;5022932;28;20661;-71
2021/08/03 01:41:12;;;;;;;7.60;4.95;;;;;;;;;;5023133;28;20190;-71
2021/08/03 01:43:39;;;;;;;8.38;4.97;;;;;;;;;;5024598;28;20228;-71
2021/08/03 01:46:06;;;;;;;8.50;5.03;;;;;;;;;;5019597;28;20201;-70
2021/08/03 01:48:33;;;;;;;7.72;4.93;;;;;;;;;;5020915;28;20197;-70
2021/08/03 01:51:00;;;;;;;9.55;5.45;;;;;;;;;;5027829;28;20190;-70
2021/08/03 01:53:26;;;;;;;13.07;6.60;;;;;;;;;;5014486;28;20418;-71
2021/08/03 01:55:58;;;;;;;11.80;6.40;;;;;;;;;;5020232;28;20302;-71
2021/08/03 01:58:24;;;;;;;10.43;6.10;;;;;;;;;;5014110;28;20319;-71
2021/08/03 02:00:54;;;;;;;10.38;6.93;;;;;;;;;;5029474;28;20840;-71
2021/08/03 02:03:22;;;;;;;11.35;6.15;;;;;;;;;;5015309;28;20190;-71
2021/08/03 02:05:49;;;;;;;9.13;5.82;;;;;;;;;;5037184;28;20262;-71
2021/08/03 02:08:17;;;;;;;8.23;5.20;;;;;;;;;;5014423;28;20186;-71
2021/08/03 02:10:44;;;;;;;8.98;4.97;;;;;;;;;;5014638;28;20187;-70
2021/08/03 02:13:10;;;;;;;11.30;4.93;;;;;;;;;;5007422;28;20243;-71
2021/08/03 02:15:37;;;;;;;8.65;5.80;;;;;;;;;;5021091;28;20666;-71
2021/08/03 02:18:02;;;;;;;10.60;5.13;;;;;;;;;;5012070;28;20197;-71
2021/08/03 02:20:27;;;;;;;10.85;5.88;;;;;;;;;;5024734;28;20545;-71
2021/08/03 02:22:53;;;;;;;9.70;6.55;;;;;;;;;;5011289;28;20224;-71
2021/08/03 02:25:18;;;;;;;11.45;7.05;;;;;;;;;;5024887;28;20178;-71
2021/08/03 02:27:44;;;;;;;13.18;7.68;;;;;;;;;;5020514;28;20283;-71
2021/08/03 02:30:11;;;;;;;10.45;7.07;;;;;;;;;;5015326;28;20261;-71
2021/08/03 02:32:49;;;;;;;11.77;7.45;;;;;;;;;;5024749;28;20584;-71
2021/08/03 02:35:19;;;;;;;11.70;6.22;;;;;;;;;;5012775;28;20285;-71
2021/08/03 02:37:54;;;;;;;9.35;6.78;;;;;;;;;;5028009;28;20660;-71
2021/08/03 02:40:20;;;;;;;10.57;7.10;;;;;;;;;;5015169;28;20186;-71
2021/08/03 02:42:48;;;;;;;9.35;7.25;;;;;;;;;;5024570;28;20180;-71
2021/08/03 02:45:17;;;;;;;10.38;6.90;;;;;;;;;;5010896;28;20209;-71
2021/08/03 02:47:48;;;;;;;11.35;7.25;;;;;;;;;;5023858;28;20259;-71
2021/08/03 02:50:15;;;;;;;11.95;6.63;;;;;;;;;;5015826;28;20273;-71
2021/08/03 02:52:44;;;;;;;7.78;5.50;;;;;;;;;;5024839;28;20210;-71
2021/08/03 02:55:16;;;;;;;8.73;5.75;;;;;;;;;;5014619;28;20214;-71
2021/08/03 02:57:45;;;;;;;7.57;5.20;;;;;;;;;;5031160;28;20228;-71
2021/08/03 03:00:12;;;;;;;12.30;6.15;;;;;;;;;;5015799;28;20584;-71
2021/08/03 03:02:43;;;;;;;7.65;5.18;;;;;;;;;;5024770;28;20197;-71
2021/08/03 03:05:23;;;;;;;8.70;5.40;;;;;;;;;;5016682;28;20198;-71
2021/08/03 03:07:52;;;;;;;8.23;5.15;;;;;;;;;;5024403;28;20182;-71
2021/08/03 03:10:26;;;;;;;6.60;5.68;;;;;;;;;;5033590;28;20220;-71
2021/08/03 03:13:16;;;;;;;8.80;5.00;;;;;;;;;;5024467;28;21626;-71
2021/08/03 03:15:42;;;;;;;7.30;4.38;;;;;;;;;;5012161;28;20238;-71
2021/08/03 03:18:08;;;;;;;5.35;4.35;;;;;;;;;;5023394;28;20260;-71
2021/08/03 03:20:34;;;;;;;7.18;5.22;;;;;;;;;;5017756;28;20189;-71
2021/08/03 03:23:01;;;;;;;6.80;5.18;;;;;;;;;;5014983;28;20204;-72
2021/08/03 03:25:28;;;;;;;8.10;4.78;;;;;;;;;;5037354;28;20182;-70
2021/08/03 03:27:58;;;;;;;8.88;4.72;;;;;;;;;;5016908;28;20194;-70
2021/08/03 03:30:25;;;;;;;6.00;4.28;;;;;;;;;;5053760;28;20228;-70
2021/08/03 03:32:51;;;;;;;9.50;4.28;;;;;;;;;;5023369;28;20265;-71
2021/08/03 03:35:20;;;;;;;7.00;4.60;;;;;;;;;;5020906;28;20218;-71
2021/08/03 03:37:47;;;;;;;7.85;4.68;;;;;;;;;;5015337;28;20204;-71
2021/08/03 03:40:19;;;;;;;6.20;4.85;;;;;;;;;;5021670;28;20193;-70
2021/08/03 03:42:47;;;;;;;8.43;3.97;;;;;;;;;;5014165;28;20190;-70
2021/08/03 03:45:13;;;;;;;5.82;4.13;;;;;;;;;;5021960;28;20185;-71
2021/08/03 03:47:44;;;;;;;7.32;4.70;;;;;;;;;;5013028;28;20248;-71
2021/08/03 03:50:15;;;;;;;9.85;4.65;;;;;;;;;;5020997;28;21338;-71
2021/08/03 03:52:46;;;;;;;7.28;4.82;;;;;;;;;;5012617;28;20620;-71
2021/08/03 03:55:19;;;;;;;9.50;4.80;;;;;;;;;;5021372;28;20254;-70
2021/08/03 03:57:46;;;;;;;5.15;4.38;;;;;;;;;;5012538;28;20240;-71
2021/08/03 04:00:14;;;;;;;8.43;4.05;;;;;;;;;;5022143;28;20240;-71
2021/08/03 04:02:40;;;;;;;7.15;4.82;;;;;;;;;;5023687;28;20265;-70
2021/08/03 04:05:10;;;;;;;10.30;4.22;;;;;;;;;;5018032;28;20193;-70
2021/08/03 04:07:36;;;;;;;8.20;4.53;;;;;;;;;;5027130;28;20273;-70
2021/08/03 04:10:07;;;;;;;5.38;4.20;;;;;;;;;;5016770;28;20269;-70
2021/08/03 04:12:32;;;;;;;6.03;4.68;;;;;;;;;;5028557;28;20665;-71
2021/08/03 04:14:58;;;;;;;8.65;5.07;;;;;;;;;;5018266;28;20251;-71
2021/08/03 04:17:23;;;;;;;6.05;4.32;;;;;;;;;;5023038;28;20186;-71
2021/08/03 04:19:49;;;;;;;6.70;4.32;;;;;;;;;;5021756;28;20188;-71
2021/08/03 04:22:14;;;;;;;6.10;4.60;;;;;;;;;;5023410;28;20611;-71
2021/08/03 04:24:39;;;;;;;9.40;5.25;;;;;;;;;;5012851;28;20182;-71
2021/08/03 04:27:05;;;;;;;6.45;4.82;;;;;;;;;;5021902;28;20198;-71
2021/08/03 04:29:30;;;;;;;8.40;5.32;;;;;;;;;;5020284;28;20201;-71
2021/08/03 04:31:56;;;;;;;8.32;4.88;;;;;;;;;;5023872;28;20198;-71
2021/08/03 04:34:21;;;;;;;7.13;4.60;;;;;;;;;;5028993;28;20440;-71
2021/08/03 04:36:47;;;;;;;8.95;5.10;;;;;;;;;;5013773;28;20607;-71
2021/08/03 04:39:12;;;;;;;5.78;4.10;;;;;;;;;;5033931;28;20260;-71
2021/08/03 04:41:39;;;;;;;7.20;4.30;;;;;;;;;;5018594;28;20228;-71
2021/08/03 04:44:05;;;;;;;4.88;4.30;;;;;;;;;;5021785;28;20182;-72
2021/08/03 04:46:30;;;;;;;9.60;5.03;;;;;;;;;;5016917;28;20186;-70
2021/08/03 04:48:56;;;;;;;6.53;4.93;;;;;;;;;;5028108;28;20277;-72
2021/08/03 04:51:21;;;;;;;6.65;5.22;;;;;;;;;;5017408;28;20196;-72
2021/08/03 04:53:46;;;;;;;5.72;4.97;;;;;;;;;;5027449;28;20257;-70
2021/08/03 04:56:12;;;;;;;8.48;5.30;;;;;;;;;;5019003;28;20272;-71
2021/08/03 04:58:41;;;;;;;6.20;4.63;;;;;;;;;;5038036;28;20260;-71
2021/08/03 05:01:07;;;;;;;8.23;4.97;;;;;;;;;;5011961;28;20187;-71
2021/08/03 05:03:32;;;;;;;7.68;5.38;;;;;;;;;;5030999;28;20193;-71
2021/08/03 05:05:57;;;;;;;7.80;4.97;;;;;;;;;;5018303;28;20228;-71
2021/08/03 05:08:23;;;;;;;6.30;4.90;;;;;;;;;;5014207;28;20609;-70
2021/08/03 05:10:48;;;;;;;5.68;5.15;;;;;;;;;;5021363;28;20213;-71
2021/08/03 05:13:13;;;;;;;6.53;4.97;;;;;;;;;;5011106;28;20197;-70
2021/08/03 05:15:39;;;;;;;8.73;5.40;;;;;;;;;;5014939;28;20224;-70
2021/08/03 05:18:04;;;;;;;6.72;5.32;;;;;;;;;;5011159;28;20186;-70
2021/08/03 05:20:29;;;;;;;9.15;5.78;;;;;;;;;;5016456;28;20253;-71
2021/08/03 05:22:55;;;;;;;8.50;5.57;;;;;;;;;;5010579;28;20606;-71
2021/08/03 05:25:20;;;;;;;7.80;5.78;;;;;;;;;;5032589;28;20182;-71
2021/08/03 05:27:45;;;;;;;11.02;6.72;;;;;;;;;;5012277;28;20692;-71
2021/08/03 05:30:11;;;;;;;7.60;6.03;;;;;;;;;;5018341;28;20608;-71
2021/08/03 05:32:37;;;;;;;8.15;5.85;;;;;;;;;;5012033;28;20612;-71
2021/08/03 05:35:04;;;;;;;7.45;6.03;;;;;;;;;;5020355;28;20589;-71
2021/08/03 05:37:30;;;;;;;7.25;6.38;;;;;;;;;;5020012;28;20190;-71
2021/08/03 05:39:59;;;;;;;11.25;6.65;;;;;;;;;;5012649;28;20614;-72
2021/08/03 05:42:25;;;;;;;6.93;6.00;;;;;;;;;;5023246;28;20193;-71
2021/08/03 05:44:50;;;;;;;13.55;6.55;;;;;;;;;;5013108;28;20196;-72
2021/08/03 05:47:16;;;;;;;8.75;6.93;;;;;;;;;;5015153;28;20175;-71
2021/08/03 05:49:41;;;;;;;13.23;6.63;;;;;;;;;;5013444;28;20191;-72
2021/08/03 05:52:06;;;;;;;10.75;6.60;;;;;;;;;;5020023;28;20193;-72
2021/08/03 05:54:32;;;;;;;8.50;6.43;;;;;;;;;;5011332;28;20189;-72
2021/08/03 05:56:57;;;;;;;8.27;6.25;;;;;;;;;;5018453;28;20635;-72
2021/08/03 05:59:22;;;;;;;8.57;5.70;;;;;;;;;;5011239;28;20240;-72
2021/08/03 06:01:48;;;;;;;7.82;5.20;;;;;;;;;;5020643;28;20210;-70
2021/08/03 06:04:14;;;;;;;10.00;5.30;;;;;;;;;;5015159;28;20185;-72
2021/08/03 06:06:42;;;;;;;5.85;4.90;;;;;;;;;;5021831;28;20182;-70
2021/08/03 06:09:13;;;;;;;8.52;5.00;;;;;;;;;;5017844;28;20194;-72
2021/08/03 06:11:49;;;;;;;8.43;5.50;;;;;;;;;;5010366;28;20194;-70
2021/08/03 06:14:40;;;;;;;5.40;4.80;;;;;;;;;;5016328;28;20198;-69
2021/08/03 06:17:09;;;;;;;6.10;4.60;;;;;;;;;;5018604;28;20210;-70
2021/08/03 06:19:44;;;;;;;7.65;4.05;;;;;;;;;;5019897;28;20275;-70
2021/08/03 06:22:10;;;;;;;8.93;4.38;;;;;;;;;;5016728;28;20648;-71
2021/08/03 06:24:39;;;;;;;6.65;4.10;;;;;;;;;;5040055;28;20267;-70
2021/08/03 06:27:12;;;;;;;5.63;4.35;;;;;;;;;;5012830;28;20601;-70
2021/08/03 06:29:38;;;;;;;5.68;3.88;;;;;;;;;;5023658;28;20221;-70
2021/08/03 06:32:05;;;;;;;4.90;3.85;;;;;;;;;;5016206;28;20194;-71
2021/08/03 06:34:33;;;;;;;6.65;4.03;;;;;;;;;;5019838;28;20276;-71
2021/08/03 06:36:59;;;;;;;5.85;3.70;;;;;;;;;;5011214;28;20623;-71
2021/08/03 06:39:24;;;;;;;4.10;3.70;;;;;;;;;;5022316;28;20204;-71
2021/08/03 06:41:56;;;;;;;5.13;3.38;;;;;;;;;;5018841;28;20238;-69
2021/08/03 06:44:22;;;;;;;5.78;3.20;;;;;;;;;;5018385;28;20174;-71
2021/08/03 06:46:53;;;;;;;12.07;3.58;;;;;;;;;;5016705;28;20297;-72
2021/08/03 06:49:19;;;;;;;7.38;3.58;;;;;;;;;;5020765;28;20178;-72
2021/08/03 06:51:46;;;;;;;4.20;3.28;;;;;;;;;;5015794;28;20194;-72
2021/08/03 06:54:12;;;;;;;6.45;3.20;;;;;;;;;;5019354;28;20214;-71
2021/08/03 06:56:50;;;;;;;4.88;2.72;;;;;;;;;;5022053;28;20219;-72
2021/08/03 06:59:18;;;;;;;4.85;2.78;;;;;;;;;;5018156;28;20240;-72
2021/08/03 07:01:52;;;;;;;2.47;2.20;;;;;;;;;;5022995;28;20193;-70
2021/08/03 07:04:28;;;;;;;5.05;2.25;;;;;;;;;;5013116;28;20189;-71
2021/08/03 07:07:00;;;;;;;5.40;1.85;;;;;;;;;;5022237;28;20198;-70
2021/08/03 07:09:27;;;;;;;6.43;2.00;;;;;;;;;;5014843;28;20220;-70
2021/08/03 07:11:53;;;;;;;5.30;2.15;;;;;;;;;;5016690;28;20693;-70
2021/08/03 07:14:19;;;;;;;4.55;2.35;;;;;;;;;;5010121;28;20190;-70
2021/08/03 07:16:47;;;;;;;7.38;2.60;;;;;;;;;;5020429;28;20237;-71
2021/08/03 07:19:13;;;;;;;7.20;2.97;;;;;;;;;;5017984;28;20185;-70
2021/08/03 07:21:39;;;;;;;4.07;2.60;;;;;;;;;;5016370;28;20686;-70
2021/08/03 07:24:08;;;;;;;6.03;2.50;;;;;;;;;;5017999;28;20244;-70
2021/08/03 07:26:33;;;;;;;7.75;2.63;;;;;;;;;;5022311;28;20613;-69
2021/08/03 07:28:59;;;;;;;3.50;2.17;;;;;;;;;;5013195;28;20272;-70
2021/08/03 07:31:24;;;;;;;5.10;2.35;;;;;;;;;;5019490;28;20274;-70
2021/08/03 07:33:49;;;;;;;5.50;2.40;;;;;;;;;;5014704;28;20270;-70
2021/08/03 07:36:15;;;;;;;7.53;2.63;;;;;;;;;;5013970;28;20207;-70
2021/08/03 07:38:44;;;;;;;5.55;2.03;;;;;;;;;;5021734;28;20209;-70
2021/08/03 07:41:09;;;;;;;5.97;2.30;;;;;;;;;;5008668;28;20189;-71
2021/08/03 07:43:35;;;;;;;4.68;2.38;;;;;;;;;;5025904;28;20273;-70
2021/08/03 07:46:00;;;;;;;3.63;2.30;;;;;;;;;;5012340;28;20198;-71
2021/08/03 07:48:25;;;;;;;4.63;2.35;;;;;;;;;;5029075;28;20208;-71
2021/08/03 07:50:51;;;;;;;5.18;2.22;;;;;;;;;;5016179;28;20221;-71
2021/08/03 07:53:16;;;;;;;2.60;2.10;;;;;;;;;;5026331;28;20178;-72
2021/08/03 07:55:42;;;;;;;4.80;2.20;;;;;;;;;;5016782;28;20229;-71
2021/08/03 07:58:07;;;;;;;3.08;1.88;;;;;;;;;;5029238;28;20231;-71
2021/08/03 08:00:32;;;;;;;5.38;2.10;;;;;;;;;;5012936;28;20212;-70
2021/08/03 08:02:58;;;;;;;4.53;1.95;;;;;;;;;;5024019;28;20686;-68
2021/08/03 08:05:23;;;;;;;6.13;2.22;;;;;;;;;;5016114;28;20186;-71
2021/08/03 08:07:48;;;;;;;4.47;2.15;;;;;;;;;;5024180;28;20674;-70
2021/08/03 08:10:14;;;;;;;2.60;2.20;;;;;;;;;;5025906;28;20193;-71
2021/08/03 08:12:39;;;;;;;5.45;1.77;;;;;;;;;;5018191;28;20186;-71
2021/08/03 08:15:05;;;;;;;4.70;2.05;;;;;;;;;;5022267;28;20210;-71
2021/08/03 08:17:30;;;;;;;7.10;2.15;;;;;;;;;;5022214;28;20222;-71
2021/08/03 08:19:56;;;;;;;4.13;1.80;;;;;;;;;;5018262;28;20649;-71
2021/08/03 08:22:21;;;;;;;2.17;1.52;;;;;;;;;;5019975;28;20621;-70
2021/08/03 08:24:46;;;;;;;2.70;1.80;;;;;;;;;;5051037;28;20654;-71
2021/08/03 08:27:12;;;;;;;4.68;1.98;;;;;;;;;;5013806;28;20195;-71
2021/08/03 08:29:39;;;;;;;6.68;1.42;;;;;;;;;;5022127;28;20197;-71
2021/08/03 08:32:05;;;;;;;2.80;1.33;;;;;;;;;;5017407;28;20187;-71
2021/08/03 08:34:31;;;;;;;5.47;1.73;;;;;;;;;;5023359;28;20213;-71
2021/08/03 08:36:56;;;;;;;4.03;2.45;;;;;;;;;;5017252;28;20197;-70
2021/08/03 08:39:22;;;;;;;2.60;1.70;;;;;;;;;;5019885;28;20179;-71
2021/08/03 08:41:47;;;;;;;3.30;1.38;;;;;;;;;;5028138;28;20179;-70
2021/08/03 08:44:13;;;;;;;7.72;1.30;;;;;;;;;;5011374;28;20186;-71
2021/08/03 08:46:40;;;;;;;3.15;1.50;;;;;;;;;;5029436;28;20240;-70
2021/08/03 08:49:06;;;;;;;3.17;1.40;;;;;;;;;;5011202;28;20205;-71
2021/08/03 08:51:32;;;;;;;2.90;1.25;;;;;;;;;;5022123;28;20706;-71
2021/08/03 08:53:58;;;;;;;4.78;1.42;;;;;;;;;;5005457;28;20331;-71
2021/08/03 08:56:24;;;;;;;3.75;1.45;;;;;;;;;;5013802;28;20330;-70
2021/08/03 08:58:49;;;;;;;3.17;1.50;;;;;;;;;;5011445;28;20309;-71
2021/08/03 09:01:15;;;;;;;2.40;1.38;;;;;;;;;;5023913;28;20187;-72
2021/08/03 09:03:43;;;;;;;1.70;1.38;;;;;;;;;;5013738;28;20226;-72
2021/08/03 09:06:10;;;;;;;1.88;1.00;;;;;;;;;;5015765;28;20205;-71
2021/08/03 09:08:40;;;;;;;2.75;0.90;;;;;;;;;;5010921;28;20278;-71
2021/08/03 09:11:10;;;;;;;5.60;1.40;;;;;;;;;;5024454;28;20194;-71
2021/08/03 09:13:57;;;;;;;3.08;1.25;;;;;;;;;;5019267;28;20190;-71
2021/08/03 09:16:25;;;;;;;5.32;0.70;;;;;;;;;;5019487;28;20574;-71
2021/08/03 09:18:53;;;;;;;1.77;0.80;;;;;;;;;;5022460;28;20193;-70
2021/08/03 09:21:24;;;;;;;4.55;1.17;;;;;;;;;;5015943;28;20205;-71
2021/08/03 09:23:55;;;;;;;1.65;0.73;;;;;;;;;;5017832;28;20951;-71
2021/08/03 09:26:46;;;;;;;2.75;0.75;;;;;;;;;;5013788;28;20324;-71
2021/08/03 09:29:13;;;;;;;3.95;1.00;;;;;;;;;;5019251;28;20669;-71
2021/08/03 09:31:40;;;;;;;4.90;1.13;;;;;;;;;;5018141;28;20186;-71
2021/08/03 09:34:14;;;;;;;1.27;0.82;;;;;;;;;;5024573;28;20235;-71
2021/08/03 09:36:50;;;;;;;3.28;1.25;;;;;;;;;;5026936;28;20307;-71
2021/08/03 09:39:42;;;;;;;1.58;0.85;;;;;;;;;;5024428;28;20178;-72
2021/08/03 09:42:29;;;;;;;2.80;0.98;;;;;;;;;;5012271;28;20198;-71
2021/08/03 09:45:01;;;;;;;2.33;0.70;;;;;;;;;;5022436;28;20236;-71
2021/08/03 09:47:28;;;;;;;2.33;1.10;;;;;;;;;;5012307;28;20202;-72
2021/08/03 09:49:56;;;;;;;2.65;1.10;;;;;;;;;;5021765;28;20181;-72
2021/08/03 09:52:24;;;;;;;1.75;0.95;;;;;;;;;;5013853;28;20638;-71
2021/08/03 09:55:06;;;;;;;2.38;0.85;;;;;;;;;;5026361;28;20190;-71
2021/08/03 09:57:32;;;;;;;6.80;0.98;;;;;;;;;;5015503;28;20318;-71
2021/08/03 09:59:57;;;;;;;2.58;1.00;;;;;;;;;;5020248;28;20229;-71
2021/08/03 10:02:25;;;;;;;2.85;0.98;;;;;;;;;;5016818;28;20200;-70
2021/08/03 10:04:52;;;;;;;3.00;0.85;;;;;;;;;;5017766;28;20236;-70
2021/08/03 10:07:18;;;;;;;4.32;1.05;;;;;;;;;;5015838;28;20192;-71
2021/08/03 10:09:45;;;;;;;1.67;0.80;;;;;;;;;;5025527;28;20220;-71
2021/08/03 10:12:11;;;;;;;1.80;0.77;;;;;;;;;;5013263;28;20206;-71
2021/08/03 10:14:36;;;;;;;6.13;1.23;;;;;;;;;;5020846;28;20228;-71
2021/08/03 10:17:02;;;;;;;3.35;1.20;;;;;;;;;;5014244;28;20198;-71
2021/08/03 10:19:30;;;;;;;4.35;1.10;;;;;;;;;;5020715;28;20194;-71
2021/08/03 10:22:10;;;;;;;2.90;1.10;;;;;;;;;;5023131;28;20182;-70
2021/08/03 10:24:41;;;;;;;2.88;0.82;;;;;;;;;;5038717;28;20284;-71
2021/08/03 10:27:14;;;;;;;2.22;1.00;;;;;;;;;;5022344;28;20559;-69
2021/08/03 10:29:49;;;;;;;4.68;1.30;;;;;;;;;;5014157;28;20277;-69
2021/08/03 10:32:37;;;;;;;4.53;1.17;;;;;;;;;;5017191;28;20182;-70
2021/08/03 10:35:04;;;;;;;4.03;1.20;;;;;;;;;;5014828;28;20206;-70
2021/08/03 10:38:00;;;;;;;2.13;1.42;;;;;;;;;;5023295;28;20186;-71
2021/08/03 10:41:02;;;;;;;3.47;1.35;;;;;;;;;;5018756;28;20689;-70
2021/08/03 10:43:33;;;;;;;6.07;1.60;;;;;;;;;;5007441;28;21450;-71
2021/08/03 10:46:08;;;;;;;3.40;1.25;;;;;;;;;;5022474;28;20272;-69
2021/08/03 10:48:39;;;;;;;4.28;1.40;;;;;;;;;;5013972;28;20232;-69
2021/08/03 10:51:17;;;;;;;5.88;1.42;;;;;;;;;;5028633;28;20191;-69
2021/08/03 10:53:51;;;;;;;3.80;1.25;;;;;;;;;;5020692;28;20190;-69
2021/08/03 10:56:18;;;;;;;3.13;1.40;;;;;;;;;;5025226;28;20197;-70
2021/08/03 10:58:44;;;;;;;3.40;1.25;;;;;;;;;;5018338;28;20649;-72
2021/08/03 11:01:09;;;;;;;3.88;1.23;;;;;;;;;;5019534;28;20248;-71
2021/08/03 11:03:35;;;;;;;4.60;1.38;;;;;;;;;;5014463;28;20559;-71
2021/08/03 11:06:03;;;;;;;2.22;1.30;;;;;;;;;;5020438;28;20642;-69
2021/08/03 11:08:30;;;;;;;4.18;1.38;;;;;;;;;;4326439;28;10000760;-69
2021/08/03 11:11:19;;;;;;;3.05;1.52;;;;;;;;;;5009172;28;20224;-69
2021/08/03 11:13:56;;;;;;;8.38;1.48;;;;;;;;;;5015299;28;20273;-71
2021/08/03 11:16:21;;;;;;;4.90;1.52;;;;;;;;;;5013717;28;20221;-70
2021/08/03 11:18:50;;;;;;;4.13;1.48;;;;;;;;;;5019602;28;20652;-70
2021/08/03 11:21:17;;;;;;;3.70;1.67;;;;;;;;;;5009255;28;20191;-69
2021/08/03 11:24:05;;;;;;;5.05;1.55;;;;;;;;;;5013207;28;20194;-69
2021/08/03 11:26:32;;;;;;;3.42;1.35;;;;;;;;;;5010081;28;20268;-68
2021/08/03 11:29:13;;;;;;;3.67;1.40;;;;;;;;;;5013286;28;20227;-69
2021/08/03 11:31:50;;;;;;;2.08;1.33;;;;;;;;;;5010785;28;20190;-69
2021/08/03 11:34:30;;;;;;;5.68;1.70;;;;;;;;;;5017590;28;20214;-70
2021/08/03 11:37:16;;;;;;;4.90;1.40;;;;;;;;;;5007669;28;20616;-68
2021/08/03 11:39:45;;;;;;;2.20;1.17;;;;;;;;;;5018864;28;20704;-69
2021/08/03 11:42:12;;;;;;;4.05;1.60;;;;;;;;;;5006908;28;20196;-72
2021/08/03 11:44:39;;;;;;;3.35;1.33;;;;;;;;;;5009230;28;20580;-68
2021/08/03 11:47:10;;;;;;;2.40;1.45;;;;;;;;;;5011097;28;20552;-69
2021/08/03 11:49:39;;;;;;;6.05;1.58;;;;;;;;;;5016175;28;20192;-69
2021/08/03 11:52:16;;;;;;;4.03;1.75;;;;;;;;;;5011865;28;20586;-67
2021/08/03 11:54:45;;;;;;;3.17;1.55;;;;;;;;;;5021533;28;20185;-68
2021/08/03 11:57:23;;;;;;;3.97;1.58;;;;;;;;;;5009478;28;20198;-69
2021/08/03 11:59:59;;;;;;;3.20;1.60;;;;;;;;;;5020974;28;20238;-69
2021/08/03 12:02:24;;;;;;;2.58;1.77;;;;;;;;;;5003143;28;20197;-70
2021/08/03 12:05:08;;;;;;;6.10;1.40;;;;;;;;;;5021504;28;20189;-68
2021/08/03 12:07:36;;;;;;;3.00;1.50;;;;;;;;;;4665612;28;10000675;-69
2021/08/03 12:10:02;;;;;;;5.78;1.67;;;;;;;;;;5019509;28;20182;-70
2021/08/03 12:12:28;;;;;;;4.50;1.50;;;;;;;;;;5014900;28;20190;-69
2021/08/03 12:15:08;;;;;;;4.45;1.30;;;;;;;;;;5014458;28;20239;-69
2021/08/03 12:17:35;;;;;;;3.25;1.27;;;;;;;;;;5019095;28;20211;-70
2021/08/03 12:20:30;;;;;;;4.47;1.20;;;;;;;;;;5009910;28;20263;-69
2021/08/03 12:23:08;;;;;;;2.67;1.70;;;;;;;;;;5020761;28;20193;-70
2021/08/03 12:25:51;;;;;;;2.67;1.25;;;;;;;;;;5012352;28;20181;-70
2021/08/03 12:28:26;;;;;;;3.42;2.15;;;;;;;;;;5016236;28;20199;-70
2021/08/03 12:30:52;;;;;;;4.03;1.70;;;;;;;;;;5012854;28;20316;-70
2021/08/03 12:33:31;;;;;;;2.67;1.42;;;;;;;;;;5019835;28;20843;-70
2021/08/03 12:36:05;;;;;;;3.63;1.60;;;;;;;;;;5012291;28;20210;-70
2021/08/03 12:38:31;;;;;;;4.05;1.83;;;;;;;;;;5030569;28;20194;-70
2021/08/03 12:40:56;;;;;;;5.53;1.65;;;;;;;;;;5013055;28;20256;-70
2021/08/03 12:43:38;;;;;;;2.35;1.73;;;;;;;;;;5020868;28;20175;-70
2021/08/03 12:46:04;;;;;;;3.05;1.50;;;;;;;;;;5013903;28;20657;-70
2021/08/03 12:48:31;;;;;;;5.97;1.90;;;;;;;;;;5022688;28;20221;-70
2021/08/03 12:51:01;;;;;;;3.65;1.75;;;;;;;;;;5016596;28;20646;-70
2021/08/03 12:53:28;;;;;;;3.33;2.00;;;;;;;;;;5025362;28;20197;-70
2021/08/03 12:55:57;;;;;;;6.53;2.63;;;;;;;;;;5015432;28;20297;-70
2021/08/03 12:58:32;;;;;;;4.18;2.00;;;;;;;;;;5026931;28;20221;-70
2021/08/03 13:01:09;;;;;;;6.57;2.75;;;;;;;;;;5018784;28;20268;-70
2021/08/03 13:03:34;;;;;;;5.25;2.03;;;;;;;;;;5025683;28;20228;-71
2021/08/03 13:06:03;;;;;;;8.15;2.80;;;;;;;;;;5017399;28;20194;-71
2021/08/03 13:08:29;;;;;;;3.80;1.70;;;;;;;;;;5021828;28;20717;-70
2021/08/03 13:10:54;;;;;;;2.00;1.45;;;;;;;;;;5028357;28;20217;-71
2021/08/03 13:13:19;;;;;;;4.00;1.70;;;;;;;;;;5023201;28;20283;-71
2021/08/03 13:15:45;;;;;;;5.53;2.13;;;;;;;;;;5015937;28;20534;-70
2021/08/03 13:18:10;;;;;;;3.38;1.58;;;;;;;;;;4996884;28;20190;-71
2021/08/03 13:20:35;;;;;;;3.17;1.77;;;;;;;;;;5021079;28;20186;-71
2021/08/03 13:23:01;;;;;;;4.38;1.77;;;;;;;;;;5009801;28;20212;-71
2021/08/03 13:25:26;;;;;;;4.15;1.88;;;;;;;;;;5019074;28;20192;-71
2021/08/03 13:27:51;;;;;;;3.53;2.28;;;;;;;;;;5013027;28;20213;-70
2021/08/03 13:30:17;;;;;;;4.60;2.10;;;;;;;;;;5021526;28;20198;-70
2021/08/03 13:32:42;;;;;;;2.80;1.85;;;;;;;;;;5016629;28;20206;-70
2021/08/03 13:35:08;;;;;;;3.75;1.75;;;;;;;;;;5022951;28;20708;-70
2021/08/03 13:37:33;;;;;;;4.85;2.00;;;;;;;;;;5016449;28;20238;-70
2021/08/03 13:39:59;;;;;;;6.20;2.00;;;;;;;;;;5023423;28;20652;-71
2021/08/03 13:42:25;;;;;;;3.30;1.85;;;;;;;;;;5014514;28;20193;-71
2021/08/03 13:44:50;;;;;;;3.55;2.15;;;;;;;;;;5023189;28;20222;-71
2021/08/03 13:47:17;;;;;;;5.18;2.10;;;;;;;;;;5019121;28;22188;-70
2021/08/03 13:49:43;;;;;;;4.22;2.33;;;;;;;;;;5015510;28;20197;-70
2021/08/03 13:52:09;;;;;;;5.65;2.35;;;;;;;;;;5017042;28;20681;-70
2021/08/03 13:54:35;;;;;;;4.78;2.17;;;;;;;;;;5012305;28;20226;-71
2021/08/03 13:57:01;;;;;;;3.25;1.75;;;;;;;;;;5020360;28;20237;-70
2021/08/03 13:59:26;;;;;;;4.38;2.13;;;;;;;;;;5016572;28;20764;-70
2021/08/03 14:01:51;;;;;;;5.65;2.20;;;;;;;;;;5022105;28;20186;-70
2021/08/03 14:04:17;;;;;;;3.85;2.45;;;;;;;;;;5012815;28;20247;-71
2021/08/03 14:06:42;;;;;;;4.82;2.40;;;;;;;;;;5017587;28;20227;-70
2021/08/03 14:09:07;;;;;;;4.78;2.30;;;;;;;;;;5014057;28;20219;-69
2021/08/03 14:11:33;;;;;;;3.55;2.17;;;;;;;;;;5020181;28;20269;-69
2021/08/03 14:13:58;;;;;;;3.70;2.20;;;;;;;;;;5015150;28;20541;-70
2021/08/03 14:16:23;;;;;;;5.22;2.33;;;;;;;;;;5020259;28;20202;-70
2021/08/03 14:18:49;;;;;;;4.97;2.33;;;;;;;;;;5024114;28;20230;-70
2021/08/03 14:21:14;;;;;;;2.33;2.10;;;;;;;;;;5007538;28;20233;-70
2021/08/03 14:23:39;;;;;;;5.78;2.00;;;;;;;;;;5018674;28;20187;-70
2021/08/03 14:26:05;;;;;;;5.45;2.33;;;;;;;;;;5012066;28;20193;-70
2021/08/03 14:28:30;;;;;;;4.10;2.42;;;;;;;;;;5021082;28;20209;-70
2021/08/03 14:30:55;;;;;;;4.20;2.10;;;;;;;;;;5014980;28;20186;-70
2021/08/03 14:33:21;;;;;;;4.40;2.42;;;;;;;;;;5018003;28;20240;-70
2021/08/03 14:35:46;;;;;;;8.60;2.72;;;;;;;;;;5011048;28;20205;-70
2021/08/03 14:38:11;;;;;;;4.38;2.58;;;;;;;;;;5027046;28;20208;-70
2021/08/03 14:40:37;;;;;;;3.20;2.10;;;;;;;;;;5011418;28;20218;-70
2021/08/03 14:43:03;;;;;;;4.53;2.10;;;;;;;;;;5017348;28;20269;-70
2021/08/03 14:45:29;;;;;;;6.65;2.00;;;;;;;;;;5016307;28;20716;-70
2021/08/03 14:47:54;;;;;;;3.83;2.13;;;;;;;;;;5024554;28;20213;-70
2021/08/03 14:50:20;;;;;;;4.65;2.78;;;;;;;;;;5013570;28;20296;-70